Terminal Aerodrome Forecast
Issued by NWS

Home | Current Version | Previous Version | Graphics & Text | Print | Product List | Glossary On
Versions: 1 2 3 4 5 6 7 8 9 10 11 12 13 14
000
FTUS43 KICT 252300
TAFRSL
TAF
KRSL 252320Z 2600/2624 VRB06KT P6SM BKN150
     FM260900 21008KT P6SM BKN150
     FM262100 34008KT P6SM VCTS SCT100CB BKN150=

USA.gov is the U.S. government's official web portal to all federal, state and local government web resources and services.